Time;durP1;ratioP1;P1;durP2;ratioP2;P2;SDS_P1;SDS_P2;PMS_P1;PMS_P2;Temp;Humidity;BMP_temperature;BMP_pressure;BME280_temperature;BME280_humidity;BME280_pressure;Samples;Min_cycle;Max_cycle;Signal;HPM_P1;HPM_P2
2023/10/18 00:00:04;;;;;;;0.10;0.10;;;;;;;8.31;70.93;101445.69;5046819;28;20032;-80
2023/10/18 00:02:30;;;;;;;0.30;0.30;;;;;;;8.25;71.08;101448.31;5046810;28;20039;-79
2023/10/18 00:04:57;;;;;;;0.47;0.47;;;;;;;8.22;71.37;101437.75;5043883;28;20038;-80
2023/10/18 00:07:24;;;;;;;0.10;0.10;;;;;;;8.20;71.67;101436.84;5043031;28;20037;-80
2023/10/18 00:09:50;;;;;;;0.17;0.17;;;;;;;8.19;71.40;101440.41;5047567;28;20479;-80
2023/10/18 00:12:18;;;;;;;0.10;0.10;;;;;;;8.18;71.43;101436.00;5040827;28;20322;-79
2023/10/18 00:14:45;;;;;;;0.10;0.10;;;;;;;8.16;71.53;101438.66;5047704;28;20113;-80
2023/10/18 00:17:12;;;;;;;0.20;0.20;;;;;;;8.15;71.40;101439.53;5054879;28;20036;-79
2023/10/18 00:19:40;;;;;;;0.10;0.10;;;;;;;8.13;71.68;101429.84;5047868;28;20044;-80
2023/10/18 00:22:09;;;;;;;0.10;0.10;;;;;;;8.13;71.54;101429.84;5048890;28;20057;-80
2023/10/18 00:24:36;;;;;;;0.38;0.38;;;;;;;8.08;71.30;101409.59;5042097;28;20096;-80
2023/10/18 00:27:03;;;;;;;0.20;0.20;;;;;;;8.05;71.85;101409.59;5056567;28;20029;-80
2023/10/18 00:29:31;;;;;;;0.10;0.10;;;;;;;8.06;71.75;101416.66;5048872;28;20057;-81
2023/10/18 00:31:59;;;;;;;0.52;0.52;;;;;;;8.04;71.83;101418.41;5040534;28;20025;-79
2023/10/18 00:34:26;;;;;;;0.30;0.30;;;;;;;8.04;71.66;101410.47;5044452;28;20088;-79
2023/10/18 00:36:52;;;;;;;0.20;0.20;;;;;;;7.99;71.57;101409.63;5047074;28;20056;-80
2023/10/18 00:39:21;;;;;;;0.15;0.15;;;;;;;8.00;71.26;101399.91;5047133;28;20119;-80
2023/10/18 00:41:52;;;;;;;0.10;0.10;;;;;;;7.96;71.87;101396.41;5052187;28;20051;-80
2023/10/18 00:44:21;;;;;;;0.10;0.10;;;;;;;7.96;71.61;101399.03;5054139;28;20029;-80
2023/10/18 00:46:48;;;;;;;0.10;0.10;;;;;;;7.94;71.72;101401.69;5043171;28;20029;-80
2023/10/18 00:49:15;;;;;;;0.10;0.10;;;;;;;7.95;71.49;101407.88;5050446;28;20037;-80
2023/10/18 00:51:44;;;;;;;0.40;0.40;;;;;;;7.95;71.65;101402.59;5052934;28;20070;-81
2023/10/18 00:54:11;;;;;;;0.10;0.10;;;;;;;7.97;72.06;101394.66;5038417;28;20037;-80
2023/10/18 00:56:40;;;;;;;0.10;0.10;;;;;;;7.98;71.83;101397.28;5053162;28;20509;-80
2023/10/18 00:59:18;;;;;;;0.30;0.30;;;;;;;7.98;71.61;101394.66;5051075;28;20036;-80
2023/10/18 01:01:45;;;;;;;0.73;0.73;;;;;;;8.01;72.20;101392.03;5047740;28;20033;-79
2023/10/18 01:04:13;;;;;;;0.10;0.10;;;;;;;8.01;71.64;101381.47;5044419;28;20026;-78
2023/10/18 01:06:47;;;;;;;1.30;1.20;;;;;;;8.07;72.08;101380.56;5048260;28;20032;-79
2023/10/18 01:09:15;;;;;;;0.10;0.10;;;;;;;8.04;72.63;101381.47;5047708;28;20039;-79
2023/10/18 01:11:45;;;;;;;0.10;0.10;;;;;;;8.10;72.25;101381.44;5049692;28;20018;-80
2023/10/18 01:14:16;;;;;;;0.20;0.20;;;;;;;8.10;72.58;101378.81;5045077;28;20028;-79
2023/10/18 01:16:44;;;;;;;0.20;0.20;;;;;;;8.13;72.42;101380.56;5051236;28;20041;-78
2023/10/18 01:19:14;;;;;;;0.17;0.17;;;;;;;8.14;72.10;101377.06;5047629;28;20383;-78
2023/10/18 01:21:51;;;;;;;0.15;0.15;;;;;;;8.15;71.75;101372.63;5049204;28;20051;-79
2023/10/18 01:24:18;;;;;;;0.20;0.20;;;;;;;8.15;71.99;101373.53;5041525;28;20037;-77
2023/10/18 01:26:45;;;;;;;0.32;0.32;;;;;;;8.16;71.88;101366.47;5046435;28;20025;-79
2023/10/18 01:29:11;;;;;;;0.40;0.40;;;;;;;8.13;72.44;101364.72;5046200;28;20029;-78
2023/10/18 01:31:45;;;;;;;0.40;0.40;;;;;;;8.15;71.76;101356.81;5051941;28;20078;-78
2023/10/18 01:34:11;;;;;;;0.10;0.10;;;;;;;8.17;72.26;101355.03;5041374;28;20059;-78
2023/10/18 01:36:39;;;;;;;0.10;0.10;;;;;;;8.18;71.89;101351.53;5045754;28;20120;-77
2023/10/18 01:39:18;;;;;;;0.30;0.30;;;;;;;8.14;72.38;101352.41;5049235;28;20079;-77
2023/10/18 01:41:46;;;;;;;0.10;0.10;;;;;;;8.17;72.33;101347.13;5046297;28;20028;-77
2023/10/18 01:44:18;;;;;;;0.10;0.10;;;;;;;8.17;72.35;101347.13;5048430;28;20498;-76
2023/10/18 01:46:46;;;;;;;0.20;0.20;;;;;;;8.19;71.98;101345.38;5045471;28;20033;-77
2023/10/18 01:49:16;;;;;;;0.47;0.47;;;;;;;8.17;72.25;101339.22;5038416;28;20113;-78
2023/10/18 01:51:44;;;;;;;0.10;0.10;;;;;;;8.18;72.25;101335.69;5045961;28;20509;-79
2023/10/18 01:54:15;;;;;;;1.30;1.23;;;;;;;8.15;71.83;101331.31;5040323;28;20556;-78
2023/10/18 01:56:42;;;;;;;0.10;0.10;;;;;;;8.17;71.65;101318.97;5040423;28;20029;-79
2023/10/18 01:59:13;;;;;;;0.75;0.75;;;;;;;8.17;72.48;101321.59;5038073;28;20030;-78
2023/10/18 02:01:39;;;;;;;0.20;0.20;;;;;;;8.20;72.25;101318.06;5046171;28;20051;-79
2023/10/18 02:04:11;;;;;;;0.10;0.10;;;;;;;8.21;71.85;101317.19;5041579;28;20487;-79
2023/10/18 02:06:37;;;;;;;0.90;0.88;;;;;;;8.21;72.45;101304.88;5043748;28;20045;-80
2023/10/18 02:09:10;;;;;;;0.10;0.10;;;;;;;8.19;71.95;101305.78;5045841;28;20036;-78
2023/10/18 02:11:36;;;;;;;0.30;0.30;;;;;;;8.21;71.74;101301.34;5040097;28;20563;-78
2023/10/18 02:14:02;;;;;;;0.55;0.55;;;;;;;8.20;72.26;101302.22;5049574;28;20033;-79
2023/10/18 02:16:31;;;;;;;0.10;0.10;;;;;;;8.25;71.74;101288.16;5050149;28;20116;-80
2023/10/18 02:18:57;;;;;;;0.43;0.43;;;;;;;8.20;71.88;101292.56;5044628;28;20030;-80
2023/10/18 02:21:25;;;;;;;0.20;0.20;;;;;;;8.22;72.49;101292.56;5047020;28;20557;-78
2023/10/18 02:23:52;;;;;;;0.15;0.15;;;;;;;8.25;71.86;101295.22;5043723;28;20033;-80
2023/10/18 02:26:32;;;;;;;0.20;0.20;;;;;;;8.26;72.20;101291.66;5044641;28;20029;-79
2023/10/18 02:28:59;;;;;;;0.10;0.10;;;;;;;8.30;71.63;101287.25;5047257;28;20027;-79
2023/10/18 02:31:28;;;;;;;0.28;0.28;;;;;;;8.30;71.88;101282.88;5041258;28;20112;-79
2023/10/18 02:33:56;;;;;;;0.10;0.10;;;;;;;8.24;72.36;101286.38;5039738;28;20049;-80
2023/10/18 02:36:24;;;;;;;0.10;0.10;;;;;;;8.25;72.08;101279.38;5040301;28;20037;-79
2023/10/18 02:38:50;;;;;;;0.30;0.30;;;;;;;8.26;71.77;101275.81;5050460;28;20529;-78
2023/10/18 02:41:34;;;;;;;0.10;0.10;;;;;;;8.28;71.94;101281.13;5046532;28;20045;-79
2023/10/18 02:44:00;;;;;;;0.80;0.80;;;;;;;8.28;72.10;101276.69;5037296;28;20072;-78
2023/10/18 02:46:26;;;;;;;0.17;0.17;;;;;;;8.25;71.95;101259.13;5042664;28;20549;-79
2023/10/18 02:48:54;;;;;;;0.10;0.10;;;;;;;8.23;71.95;101260.00;5047867;28;20440;-81
2023/10/18 02:51:22;;;;;;;0.73;0.57;;;;;;;8.26;72.19;101250.31;5041544;28;20017;-77
2023/10/18 02:53:51;;;;;;;0.20;0.20;;;;;;;8.28;71.93;101237.09;5042813;28;20029;-79
2023/10/18 02:56:20;;;;;;;0.10;0.10;;;;;;;8.25;72.06;101237.13;5038011;28;20029;-82
2023/10/18 02:58:47;;;;;;;2.92;0.98;;;;;;;8.35;71.33;101232.66;5046042;28;20029;-77
2023/10/18 03:01:15;;;;;;;0.10;0.10;;;;;;;8.34;72.13;101228.28;5036664;28;20033;-79
2023/10/18 03:03:46;;;;;;;0.17;0.17;;;;;;;8.32;71.56;101223.00;5036780;28;20037;-82
2023/10/18 03:06:14;;;;;;;0.20;0.20;;;;;;;8.38;71.52;101227.38;5046192;28;20590;-80
2023/10/18 03:08:42;;;;;;;0.20;0.20;;;;;;;8.41;71.83;101214.16;5040897;28;20026;-81
2023/10/18 03:11:11;;;;;;;0.95;0.95;;;;;;;8.43;71.90;101220.31;5048497;28;20055;-78
2023/10/18 03:13:37;;;;;;;0.10;0.10;;;;;;;8.42;71.33;101224.72;5037887;28;20063;-79
2023/10/18 03:16:05;;;;;;;1.25;0.73;;;;;;;8.41;71.55;101222.97;5040557;28;20046;-81
2023/10/18 03:18:34;;;;;;;0.30;0.30;;;;;;;8.42;71.59;101227.38;5051416;28;20079;-79
2023/10/18 03:21:04;;;;;;;0.10;0.10;;;;;;;8.46;71.20;101224.69;5044131;28;20063;-80
2023/10/18 03:23:31;;;;;;;0.10;0.10;;;;;;;8.46;71.29;101220.34;5046096;28;20035;-77
2023/10/18 03:25:59;;;;;;;0.10;0.10;;;;;;;8.44;71.47;101216.78;5047048;28;20505;-80
2023/10/18 03:28:34;;;;;;;0.10;0.10;;;;;;;8.47;70.80;101208.00;5040841;28;20105;-79
2023/10/18 03:31:05;;;;;;;0.30;0.30;;;;;;;8.48;70.58;101201.84;5039275;28;20037;-79
2023/10/18 03:33:33;;;;;;;0.10;0.10;;;;;;;8.48;70.97;101196.56;5054213;28;20040;-79
2023/10/18 03:36:06;;;;;;;0.10;0.10;;;;;;;8.52;70.95;101190.38;5054760;28;20051;-77
2023/10/18 03:38:39;;;;;;;0.30;0.30;;;;;;;8.51;70.75;101194.78;5050890;28;20120;-79
2023/10/18 03:41:09;;;;;;;0.10;0.10;;;;;;;8.53;70.82;101186.84;5050637;28;20029;-77
2023/10/18 03:43:36;;;;;;;0.20;0.20;;;;;;;8.55;70.89;101187.72;5057528;28;20040;-78
2023/10/18 03:48:54;;;;;;;0.10;0.10;;;;;;;8.50;70.66;101181.56;5046009;28;20041;-77
2023/10/18 03:51:23;;;;;;;0.10;0.10;;;;;;;8.54;70.41;101184.19;5058283;28;20096;-77
2023/10/18 03:53:53;;;;;;;0.10;0.10;;;;;;;8.57;70.52;101181.53;5058740;28;20050;-76
2023/10/18 03:56:21;;;;;;;0.10;0.10;;;;;;;8.57;70.10;101176.25;5049742;28;20096;-79
2023/10/18 03:58:49;;;;;;;0.10;0.10;;;;;;;8.57;70.13;101167.44;5054735;28;20029;-77
2023/10/18 04:01:21;;;;;;;0.20;0.20;;;;;;;8.56;70.67;101152.47;5046290;28;20052;-77
2023/10/18 04:03:49;;;;;;;0.73;0.73;;;;;;;8.57;70.24;101155.13;5047529;28;20033;-80
2023/10/18 04:06:28;;;;;;;0.10;0.10;;;;;;;8.60;70.45;101151.59;5056677;28;20090;-79
2023/10/18 04:08:58;;;;;;;0.90;0.82;;;;;;;8.62;70.28;101152.44;5040635;28;20111;-76
2023/10/18 04:11:26;;;;;;;0.10;0.10;;;;;;;8.59;70.42;101144.53;5052300;28;20063;-78
2023/10/18 04:13:52;;;;;;;0.20;0.20;;;;;;;8.63;69.99;101142.75;5054003;28;20037;-79
2023/10/18 04:16:25;;;;;;;0.10;0.10;;;;;;;8.57;70.12;101138.38;5046838;28;20101;-78
2023/10/18 04:18:51;;;;;;;0.10;0.10;;;;;;;8.63;70.20;101138.34;5049937;28;20029;-77
2023/10/18 04:21:25;;;;;;;0.03;0.03;;;;;;;8.62;69.86;101136.59;5042578;28;20029;-76
2023/10/18 04:23:54;;;;;;;0.10;0.10;;;;;;;8.62;69.58;101141.88;5054006;28;20024;-79
2023/10/18 04:26:21;;;;;;;0.28;0.28;;;;;;;8.66;69.84;101132.16;5051985;28;20028;-79
2023/10/18 04:28:48;;;;;;;0.10;0.10;;;;;;;8.66;69.98;101137.44;5042601;28;20096;-80
2023/10/18 04:31:14;;;;;;;0.10;0.10;;;;;;;8.66;69.96;101133.06;5049666;28;20494;-79
2023/10/18 04:33:42;;;;;;;0.10;0.10;;;;;;;8.67;69.67;101134.81;5053652;28;20040;-79
2023/10/18 04:38:48;;;;;;;0.30;0.30;;;;;;;8.69;69.25;101138.31;4999548;28;20385;-81
2023/10/18 04:44:05;;;;;;;0.83;0.83;;;;;;;8.67;69.56;101129.53;5110613;27;1177960;-80
2023/10/18 04:46:32;;;;;;;0.10;0.10;;;;;;;8.66;69.47;101117.22;5126393;28;20273;-79
2023/10/18 04:54:35;;;;;;;0.10;0.10;;;;;;;8.64;69.48;101100.47;5103184;27;20405;-80
2023/10/18 04:57:00;;;;;;;0.10;0.10;;;;;;;8.64;69.42;101097.84;5083758;28;20044;-79
2023/10/18 04:59:29;;;;;;;0.10;0.10;;;;;;;8.64;69.39;101099.63;5077698;28;20033;-78
2023/10/18 05:04:33;;;;;;;0.30;0.30;;;;;;;8.67;69.44;101091.66;5113133;27;20340;-79
2023/10/18 05:07:04;;;;;;;0.20;0.20;;;;;;;8.65;69.51;101090.78;5108727;28;20035;-79
2023/10/18 05:09:41;;;;;;;0.40;0.40;;;;;;;8.63;69.52;101085.50;5098660;28;20066;-80
2023/10/18 05:12:27;;;;;;;0.10;0.10;;;;;;;8.65;69.75;101085.50;5103006;28;20061;-79
2023/10/18 05:17:42;;;;;;;0.20;0.20;;;;;;;8.66;69.31;101082.88;5105266;27;20389;-77
2023/10/18 05:20:21;;;;;;;0.20;0.20;;;;;;;8.66;69.05;101074.94;5081490;28;20373;-81
2023/10/18 05:22:50;;;;;;;0.10;0.10;;;;;;;8.71;69.62;101072.25;5092648;28;20032;-80
2023/10/18 05:27:59;;;;;;;0.17;0.17;;;;;;;8.66;69.59;101069.66;5092943;27;20401;-80
2023/10/18 05:30:27;;;;;;;0.10;0.10;;;;;;;8.67;69.05;101065.25;5091025;28;20107;-80
2023/10/18 05:35:37;;;;;;;0.10;0.10;;;;;;;8.64;69.24;101058.22;5107518;27;20389;-80
2023/10/18 05:38:06;;;;;;;0.10;0.10;;;;;;;8.66;69.03;101060.84;5073285;28;20107;-77
2023/10/18 05:43:20;;;;;;;0.10;0.10;;;;;;;8.62;69.33;101052.06;5113553;27;20391;-78
2023/10/18 05:45:48;;;;;;;0.20;0.20;;;;;;;8.63;69.06;101051.19;5104816;28;20033;-80
2023/10/18 05:48:17;;;;;;;0.10;0.10;;;;;;;8.63;69.50;101047.69;5098554;28;20082;-81
2023/10/18 05:53:30;;;;;;;0.10;0.10;;;;;;;8.63;69.59;101027.41;5088519;28;20040;-79
2023/10/18 05:55:57;;;;;;;0.60;0.60;;;;;;;8.63;69.22;101022.13;5093154;28;20066;-81
2023/10/18 05:58:26;;;;;;;0.10;0.10;;;;;;;8.62;68.85;101019.50;5090817;28;20029;-81
2023/10/18 06:00:55;;;;;;;0.15;0.15;;;;;;;8.60;68.84;101021.28;5091267;28;20024;-80
2023/10/18 06:03:22;;;;;;;0.40;0.40;;;;;;;8.55;69.31;101023.97;5091692;28;20132;-79
2023/10/18 06:05:51;;;;;;;4.38;1.27;;;;;;;8.53;69.46;101026.59;5089576;28;20107;-81
2023/10/18 06:08:22;;;;;;;8.63;1.02;;;;;;;8.53;69.80;101018.69;5081500;28;20391;-79
2023/10/18 06:10:53;;;;;;;0.20;0.20;;;;;;;8.51;69.53;101017.84;5093869;28;20020;-81
2023/10/18 06:13:21;;;;;;;0.38;0.38;;;;;;;8.51;69.75;101016.94;5091674;28;20123;-79
2023/10/18 06:15:50;;;;;;;0.10;0.10;;;;;;;8.50;69.74;100999.34;5091344;28;20020;-81
2023/10/18 06:18:17;;;;;;;0.47;0.47;;;;;;;8.50;69.05;100991.41;5086108;28;20040;-80
2023/10/18 06:20:45;;;;;;;0.10;0.10;;;;;;;8.51;69.67;100993.19;5080189;28;20219;-81
2023/10/18 06:23:42;;;;;;;1.17;1.17;;;;;;;8.49;69.77;100994.97;5090784;28;20024;-81
2023/10/18 06:25:57;;;;;;;0.10;0.10;;;;;;;8.45;69.24;100994.09;5092327;28;20541;-79
2023/10/18 06:28:25;;;;;;;0.10;0.10;;;;;;;8.45;69.48;100996.75;5086851;28;20119;-78
2023/10/18 06:30:52;;;;;;;0.10;0.10;;;;;;;8.48;69.51;100991.44;5084980;28;20029;-80
2023/10/18 06:33:19;;;;;;;0.10;0.10;;;;;;;8.49;69.52;100992.34;5075913;28;20549;-77
2023/10/18 06:35:53;;;;;;;0.10;0.10;;;;;;;8.47;69.86;100984.41;5084427;28;20029;-76
2023/10/18 06:38:22;;;;;;;0.10;0.10;;;;;;;8.53;69.71;100978.22;5092721;28;20032;-80
2023/10/18 06:43:37;;;;;;;0.17;0.17;;;;;;;8.59;69.55;100986.06;5097630;27;20389;-81
2023/10/18 06:46:04;;;;;;;0.10;0.10;;;;;;;8.53;69.43;100979.06;5101268;28;20031;-81
2023/10/18 06:48:31;;;;;;;1.02;0.75;;;;;;;8.57;69.16;100986.09;5098077;28;20024;-80
2023/10/18 06:50:58;;;;;;;1.45;1.35;;;;;;;8.60;69.50;100976.38;5093963;28;20097;-81
2023/10/18 06:53:25;;;;;;;0.10;0.10;;;;;;;8.63;69.10;100974.56;5095208;28;20490;-80
2023/10/18 06:55:59;;;;;;;0.82;0.82;;;;;;;8.67;69.48;100975.44;5092479;28;20073;-80
2023/10/18 07:01:09;;;;;;;0.10;0.10;;;;;;;8.74;69.10;100956.84;5042823;28;20422;-79
2023/10/18 07:03:37;;;;;;;0.20;0.20;;;;;;;8.78;69.17;100962.13;5042303;28;20029;-78
2023/10/18 07:06:04;;;;;;;0.17;0.17;;;;;;;8.77;69.02;100955.94;5037598;28;20723;-78
2023/10/18 07:08:34;;;;;;;1.75;1.08;;;;;;;8.80;68.86;100952.38;5040177;28;20052;-78
2023/10/18 07:11:01;;;;;;;0.10;0.10;;;;;;;8.84;68.91;100951.50;5042291;28;20071;-78
2023/10/18 07:13:46;;;;;;;0.10;0.10;;;;;;;8.88;68.96;100945.25;5045766;28;20032;-78
2023/10/18 07:16:16;;;;;;;0.10;0.10;;;;;;;8.95;68.98;100939.03;5036557;28;20029;-80
2023/10/18 07:18:44;;;;;;;0.10;0.10;;;;;;;8.97;69.17;100939.88;5040420;28;20033;-79
2023/10/18 07:21:18;;;;;;;1.80;0.85;;;;;;;9.06;69.25;100937.13;5050283;28;20036;-79
2023/10/18 07:23:53;;;;;;;0.10;0.10;;;;;;;9.12;69.25;100936.19;5057958;28;20032;-81
2023/10/18 07:26:21;;;;;;;0.50;0.50;;;;;;;9.15;68.95;100936.13;5051291;28;20079;-78
2023/10/18 07:28:49;;;;;;;0.17;0.17;;;;;;;9.23;69.00;100933.38;5051267;28;20040;-79
2023/10/18 07:31:17;;;;;;;0.20;0.20;;;;;;;9.28;68.88;100925.41;5049839;28;20029;-78
2023/10/18 07:33:44;;;;;;;0.03;0.03;;;;;;;9.33;68.84;100931.50;5045735;28;20025;-81
2023/10/18 07:36:12;;;;;;;0.10;0.10;;;;;;;9.42;68.71;100930.50;5050072;28;20037;-82
2023/10/18 07:38:47;;;;;;;0.10;0.10;;;;;;;9.46;68.92;100934.84;5049532;28;20025;-81
2023/10/18 07:41:14;;;;;;;0.75;0.75;;;;;;;9.53;68.47;100931.22;5049593;28;20045;-80
2023/10/18 07:43:44;;;;;;;0.10;0.10;;;;;;;9.57;67.90;100919.72;5050047;28;20108;-81
2023/10/18 07:46:16;;;;;;;0.20;0.20;;;;;;;9.61;67.54;100913.47;5043726;28;20036;-80
2023/10/18 07:48:47;;;;;;;0.20;0.20;;;;;;;9.74;67.38;100908.84;5045512;28;20112;-82
2023/10/18 07:51:23;;;;;;;0.20;0.20;;;;;;;9.82;67.57;100906.97;5050534;28;20033;-79
2023/10/18 07:53:50;;;;;;;0.17;0.17;;;;;;;9.81;66.94;100892.00;5050406;28;20025;-82
2023/10/18 07:56:16;;;;;;;0.40;0.40;;;;;;;9.91;67.09;100891.88;5050078;28;20044;-82
2023/10/18 07:58:48;;;;;;;0.20;0.20;;;;;;;9.94;66.57;100887.38;5040850;28;20025;-79
2023/10/18 08:01:32;;;;;;;0.20;0.20;;;;;;;10.09;66.87;100893.31;5043139;28;20059;-80
2023/10/18 08:04:01;;;;;;;0.20;0.20;;;;;;;10.17;66.51;100886.97;5049947;28;20029;-84
2023/10/18 08:06:31;;;;;;;0.10;0.10;;;;;;;10.17;65.73;100888.78;5053151;28;20079;-81
2023/10/18 08:08:57;;;;;;;0.20;0.20;;;;;;;10.27;66.28;100893.00;5052906;28;20028;-84
2023/10/18 08:11:23;;;;;;;0.40;0.40;;;;;;;10.26;64.95;100880.66;5045798;28;20022;-83
2023/10/18 08:13:49;;;;;;;0.10;0.10;;;;;;;10.27;64.39;100882.41;5038562;28;20030;-81
2023/10/18 08:16:19;;;;;;;2.53;0.75;;;;;;;10.35;64.23;100875.19;5042586;28;20574;-82
2023/10/18 08:18:52;;;;;;;0.20;0.20;;;;;;;10.40;63.89;100877.78;5035523;28;20021;-84
2023/10/18 08:21:26;;;;;;;0.20;0.20;;;;;;;10.57;63.98;100866.84;5033208;28;20041;-81
2023/10/18 08:23:53;;;;;;;0.10;0.10;;;;;;;10.65;63.72;100861.41;5035625;28;20105;-81
2023/10/18 08:26:20;;;;;;;0.45;0.45;;;;;;;10.77;64.45;100860.28;5036808;28;20037;-81
2023/10/18 08:28:46;;;;;;;0.10;0.10;;;;;;;10.82;63.93;100855.78;5043819;28;20038;-83
2023/10/18 08:31:15;;;;;;;0.10;0.10;;;;;;;10.93;63.44;100856.41;5043461;28;20041;-83
2023/10/18 08:33:42;;;;;;;0.10;0.10;;;;;;;11.00;63.50;100859.78;5037670;28;20026;-81
2023/10/18 08:36:13;;;;;;;0.52;0.52;;;;;;;11.05;62.95;100849.09;5040379;28;20029;-84
2023/10/18 08:38:41;;;;;;;0.15;0.15;;;;;;;11.12;63.45;100845.41;5037569;28;20415;-85
2023/10/18 08:41:13;;;;;;;0.30;0.30;;;;;;;11.10;63.18;100841.91;5044742;28;20052;-81
2023/10/18 08:43:59;;;;;;;;;;;;;;;11.28;61.36;100833.53;5046429;28;20025;-83
2023/10/18 08:46:26;;;;;;;0.10;0.10;;;;;;;11.09;62.56;100837.50;5042684;28;19920;-84
2023/10/18 08:48:56;;;;;;;0.10;0.10;;;;;;;11.14;61.37;100832.97;5037088;28;20052;-83
2023/10/18 08:51:27;;;;;;;0.10;0.10;;;;;;;11.22;62.19;100825.72;5042617;28;20128;-84
2023/10/18 08:53:57;;;;;;;0.10;0.10;;;;;;;11.08;60.75;100825.16;5034663;28;20418;-83
2023/10/18 08:56:29;;;;;;;0.10;0.10;;;;;;;11.20;61.20;100826.66;5039436;28;20029;-84
2023/10/18 08:58:57;;;;;;;0.80;0.45;;;;;;;11.27;61.49;100828.28;5036313;28;20021;-83
2023/10/18 09:01:24;;;;;;;0.10;0.10;;;;;;;11.22;61.19;100817.75;5029747;28;20486;-81
2023/10/18 09:03:50;;;;;;;0.17;0.17;;;;;;;11.30;61.49;100818.47;5039661;28;20025;-84
2023/10/18 09:06:31;;;;;;;0.40;0.40;;;;;;;11.36;60.12;100816.56;5036481;28;20049;-81
2023/10/18 09:09:07;;;;;;;0.22;0.22;;;;;;;11.51;60.47;100792.31;5036090;28;20102;-83
2023/10/18 09:11:37;;;;;;;0.20;0.20;;;;;;;11.58;60.71;100791.25;5034859;28;20053;-80
2023/10/18 09:14:07;;;;;;;0.10;0.10;;;;;;;11.73;61.24;100783.84;5043863;28;20092;-84
2023/10/18 09:16:39;;;;;;;0.20;0.20;;;;;;;11.83;61.26;100785.31;5042911;28;20100;-83
2023/10/18 09:19:06;;;;;;;0.83;0.40;;;;;;;11.88;60.84;100783.41;5038138;28;20026;-83
2023/10/18 09:21:36;;;;;;;0.35;0.35;;;;;;;11.90;59.34;100786.91;5038953;28;20026;-82
2023/10/18 09:24:03;;;;;;;0.10;0.10;;;;;;;11.88;59.79;100779.91;5032218;28;20025;-82
2023/10/18 09:26:40;;;;;;;0.10;0.10;;;;;;;11.94;60.05;100769.97;5025100;28;20033;-81
2023/10/18 09:29:08;;;;;;;4.47;1.27;;;;;;;11.98;59.85;100761.03;5037535;28;20034;-84
2023/10/18 09:31:36;;;;;;;0.17;0.17;;;;;;;12.03;59.71;100776.84;5036072;28;20646;-83
2023/10/18 09:34:09;;;;;;;0.10;0.10;;;;;;;12.04;59.49;100769.78;5040294;28;20034;-81
2023/10/18 09:36:39;;;;;;;1.95;1.45;;;;;;;12.09;60.42;100762.56;5039072;28;20056;-84
2023/10/18 09:39:13;;;;;;;0.10;0.10;;;;;;;12.04;59.98;100756.50;5039162;28;20120;-81
2023/10/18 09:41:40;;;;;;;0.10;0.10;;;;;;;12.18;59.88;100742.84;5032371;28;20041;-83
2023/10/18 09:44:07;;;;;;;0.95;0.50;;;;;;;12.24;60.45;100738.22;5031997;28;20041;-84
2023/10/18 09:46:34;;;;;;;0.10;0.10;;;;;;;12.37;60.73;100721.91;5030708;28;20038;-82
2023/10/18 09:49:04;;;;;;;0.10;0.10;;;;;;;12.42;60.43;100725.31;5026268;28;20018;-82
2023/10/18 09:51:32;;;;;;;0.85;0.85;;;;;;;12.47;59.69;100723.38;5032452;28;20100;-83
2023/10/18 09:54:06;;;;;;;0.15;0.15;;;;;;;12.56;59.56;100723.13;5036665;28;20077;-83
2023/10/18 09:56:34;;;;;;;0.95;0.95;;;;;;;12.61;59.68;100715.88;5029581;28;20025;-84
2023/10/18 09:59:06;;;;;;;0.32;0.32;;;;;;;12.74;60.09;100702.19;5033713;28;20083;-83
2023/10/18 10:04:35;;;;;;;0.10;0.10;;;;;;;12.94;59.48;100680.28;5115298;27;20392;-84
2023/10/18 10:09:50;;;;;;;0.10;0.10;;;;;;;13.22;59.78;100668.72;5101228;28;20101;-84
2023/10/18 10:12:17;;;;;;;0.10;0.10;;;;;;;13.18;57.75;100661.78;5099525;28;20079;-84
2023/10/18 10:14:44;;;;;;;0.10;0.10;;;;;;;13.34;58.15;100656.81;5108608;28;20026;-83
2023/10/18 10:17:17;;;;;;;2.03;1.38;;;;;;;13.42;57.45;100660.09;5100672;28;20147;-84
2023/10/18 10:19:50;;;;;;;0.10;0.10;;;;;;;13.53;57.84;100652.63;5101877;28;20032;-82
2023/10/18 10:22:17;;;;;;;0.17;0.17;;;;;;;13.62;58.94;100655.84;5101436;28;20075;-84
2023/10/18 10:24:45;;;;;;;0.10;0.10;;;;;;;13.70;58.32;100644.00;5109525;28;20036;-82
2023/10/18 10:29:56;;;;;;;0.10;0.10;;;;;;;13.85;57.38;100639.91;5097410;27;20393;-82
2023/10/18 10:32:24;;;;;;;1.13;1.10;;;;;;;13.94;57.69;100637.84;5080143;28;20020;-83
2023/10/18 10:35:11;;;;;;;0.10;0.10;;;;;;;14.05;57.38;100633.84;5072556;28;20032;-82
2023/10/18 10:37:46;;;;;;;0.30;0.30;;;;;;;14.09;57.08;100626.59;5080786;28;20032;-84
2023/10/18 10:43:08;;;;;;;0.10;0.10;;;;;;;14.14;56.27;100616.63;5043768;28;20403;-85
2023/10/18 10:45:53;;;;;;;0.10;0.10;;;;;;;14.19;56.78;100619.13;5056539;28;20017;-84
2023/10/18 10:54:11;;;;;;;0.20;0.20;;;;;;;14.42;56.15;100596.91;5054447;28;20396;-82
2023/10/18 11:04:57;;;;;;;0.10;0.10;;;;;;;14.80;55.88;100562.47;5120977;27;20137;-84
2023/10/18 11:07:25;;;;;;;0.52;0.52;;;;;;;14.78;55.34;100555.47;5079969;28;20443;-84
2023/10/18 11:09:59;;;;;;;0.20;0.20;;;;;;;14.81;55.55;100548.22;5083392;28;20362;-84
2023/10/18 11:12:27;;;;;;;0.40;0.40;;;;;;;14.93;54.75;100540.63;5089949;28;20028;-85
2023/10/18 11:14:53;;;;;;;0.20;0.20;;;;;;;15.01;55.27;100527.84;5092865;28;20055;-84
2023/10/18 11:17:23;;;;;;;0.47;0.47;;;;;;;15.08;54.55;100529.31;5087899;28;20024;-84
2023/10/18 11:19:54;;;;;;;0.85;0.85;;;;;;;15.15;54.87;100511.22;5088913;28;20497;-83
2023/10/18 11:22:23;;;;;;;0.82;0.82;;;;;;;15.29;55.00;100505.25;5084782;28;20021;-83
2023/10/18 11:24:50;;;;;;;0.30;0.30;;;;;;;15.37;53.32;100513.78;5090177;28;20040;-84
2023/10/18 11:27:21;;;;;;;0.20;0.20;;;;;;;15.49;54.95;100507.03;5088593;28;20043;-84
2023/10/18 11:29:52;;;;;;;0.25;0.25;;;;;;;15.49;53.54;100499.88;5088227;28;20039;-84
2023/10/18 11:32:19;;;;;;;0.38;0.38;;;;;;;15.51;54.34;100495.34;5086339;28;20056;-86
2023/10/18 11:34:45;;;;;;;0.10;0.10;;;;;;;15.52;54.77;100491.72;5084534;28;20036;-86
2023/10/18 11:37:23;;;;;;;0.10;0.10;;;;;;;15.53;54.75;100482.78;5079078;28;20068;-85
2023/10/18 11:39:55;;;;;;;0.32;0.32;;;;;;;15.65;55.05;100476.00;5079987;28;20032;-86
2023/10/18 11:42:29;;;;;;;0.10;0.10;;;;;;;15.74;54.68;100468.47;5079184;28;20025;-85
2023/10/18 11:44:57;;;;;;;0.43;0.43;;;;;;;15.81;54.65;100454.78;5088010;28;20026;-84
2023/10/18 11:47:23;;;;;;;0.10;0.10;;;;;;;15.99;54.64;100453.03;5087505;28;20199;-84
2023/10/18 11:49:53;;;;;;;0.10;0.10;;;;;;;16.07;54.33;100438.44;5088853;28;20042;-85
2023/10/18 11:52:22;;;;;;;0.10;0.10;;;;;;;16.14;54.01;100440.72;5090723;28;20028;-85
2023/10/18 11:54:52;;;;;;;0.10;0.10;;;;;;;16.21;54.57;100437.75;5079941;28;20037;-85
2023/10/18 11:57:29;;;;;;;0.20;0.20;;;;;;;16.29;53.24;100440.91;5080989;28;20028;-85
2023/10/18 11:59:58;;;;;;;2.33;0.75;;;;;;;16.24;53.17;100425.09;5073132;28;20050;-84
2023/10/18 12:02:31;;;;;;;0.10;0.10;;;;;;;16.28;52.61;100423.13;5086789;28;20020;-84
2023/10/18 12:04:57;;;;;;;0.10;0.10;;;;;;;16.23;53.19;100422.50;5078373;28;20098;-84
2023/10/18 12:07:24;;;;;;;0.13;0.13;;;;;;;16.26;52.29;100417.00;5088889;28;20033;-85
2023/10/18 12:09:51;;;;;;;0.10;0.10;;;;;;;16.28;52.40;100412.44;5089115;28;20025;-85
2023/10/18 12:12:20;;;;;;;0.10;0.10;;;;;;;16.28;51.88;100413.28;5085063;28;20025;-85
2023/10/18 12:14:47;;;;;;;0.10;0.10;;;;;;;16.36;53.16;100410.22;5082650;28;20036;-86
2023/10/18 12:17:14;;;;;;;0.30;0.30;;;;;;;16.39;52.06;100409.22;5078696;28;20066;-85
2023/10/18 12:19:41;;;;;;;0.10;0.10;;;;;;;16.37;52.54;100400.41;5078711;28;20067;-86
2023/10/18 12:22:15;;;;;;;0.40;0.40;;;;;;;16.31;52.49;100404.25;5076105;28;20028;-86
2023/10/18 12:24:41;;;;;;;0.82;0.82;;;;;;;16.31;53.14;100396.22;5073811;28;20044;-85
2023/10/18 12:27:18;;;;;;;0.20;0.20;;;;;;;16.21;53.15;100381.63;5073658;28;20040;-85
2023/10/18 12:29:45;;;;;;;0.10;0.10;;;;;;;16.24;53.70;100381.47;5069469;28;20034;-83
2023/10/18 12:32:19;;;;;;;0.30;0.30;;;;;;;16.21;52.12;100386.97;5070801;28;20052;-85
2023/10/18 12:34:48;;;;;;;0.10;0.10;;;;;;;16.26;52.83;100374.22;5073301;28;20028;-84
2023/10/18 12:37:16;;;;;;;0.17;0.17;;;;;;;16.34;52.68;100377.38;5075676;28;20032;-85
2023/10/18 12:39:46;;;;;;;0.32;0.32;;;;;;;16.38;53.06;100367.41;5068384;28;20032;-85
2023/10/18 12:42:14;;;;;;;5.68;1.73;;;;;;;16.40;51.81;100363.69;5073649;28;20390;-84